Nadunumu Airport

NDN · Northern Province, Papua-Nova Guiné

História da METAR NDN · Nadunumu Airport

Abaixo você vê METARs dos últimos dias. Selecione um ano para navegar pelos METARs mais antigos, a partir do ano 2007.

28 de novembro de 2022

Hora Código Clima Temp. Visibilidade Tecto Vento METAR/SPECI
12:00
V
33 °C 10 km+ - 250° 250° 10 kt METAR AYPY 280200Z 25010KT 9999 SCT040 33/23 Q1007
11:00
V
31 °C 10 km+ - 350° 350° 10 kt METAR AYPY 280100Z 35010KT 9999 FEW050 31/23 Q1008
10:00
V
30 °C 10 km+ - 330° 330° 10 kt METAR AYPY 280000Z 33010KT 9999 FEW050 30/23 Q1009
09:00
V
28 °C 10 km+ - 330° 330° 8 kt METAR AYPY 272300Z 33008KT 9999 FEW050 28/23 Q1009
08:00
V
25 °C 10 km+ - 330° 330° 10 kt METAR AYPY 272200Z 33010KT 9999 FEW050 25/23 Q1009
07:00
V
23 °C 10 km+ - 310° 310° 10 kt METAR AYPY 272100Z 31010KT 9999 FEW050 23/23 Q1009
06:00
V
23 °C 10 km+ - 320° 320° 7 kt METAR AYPY 272000Z 32007KT 9999 FEW050 23/22 Q1008=
05:00
V
23 °C 10 km+ - 310° 310° 7 kt METAR AYPY 271900Z 31007KT 9999 FEW050 23/22 Q1007
04:00
V
23 °C 10 km+ - 340° 340° 5 kt METAR AYPY 271800Z 34005KT 9999 FEW050 23/22 Q1007
03:00
V
23 °C 10 km+ - Var Var 3 kt METAR AYPY 271700Z VRB03KT 9999 FEW050 23/22 Q1007
02:00
V
24 °C 10 km+ - Var Var 3 kt METAR AYPY 271600Z VRB03KT 9999 FEW050 24/23 Q1007
01:00
V
24 °C 10 km+ - Var Var 4 kt METAR AYPY 271500Z VRB04KT 9999 FEW050 24/23 Q1007
00:00
V
24 °C 10 km+ - Var Var 3 kt METAR AYPY 271400Z VRB03KT 9999 FEW050 24/23 Q1008

27 de novembro de 2022

Hora Código Clima Temp. Visibilidade Tecto Vento METAR/SPECI
23:00
V
25 °C 10 km+ - Var Var 3 kt METAR AYPY 271300Z VRB03KT 9999 SCT050 25/23 Q1009
21:00
V
25 °C 10 km+ 10.000 ft Var Var 3 kt METAR AYPY 271100Z VRB03KT 9999 FEW030 BKN100 25/23 Q1006
18:00
V
25 °C 10 km+ 4.500 ft 330° 330° 5 kt METAR AYPY 270800Z 33005KT 9999 DZ FEW015 BKN045 25/24 Q1008
17:00
M
25 °C 10 km+ 2.000 ft 020° 020° 10 kt METAR AYPY 270700Z 02010KT 9999 BKN020 OVC035 25/24 Q1008 RMK
16:00
V
30 °C 10 km+ 3.000 ft 260° 260° 10 kt METAR AYPY 270600Z 26010KT 9999 SCT025 BKN030 30/24 Q1007 RMK/ CB ASSOCIATED WITH SHRA FM NW TO E
15:00
V
30 °C 10 km+ 4.000 ft 260° 260° 17 kt METAR AYPY 270500Z 26017KT 9999 SCT025 BKN040 30/24 Q1006 RMK
13:00
V
31 °C 10 km+ 4.000 ft 250° 250° 10 - 15 kt METAR AYPY 270300Z 25010G15KT 9999 SCT025 BKN040 31/24 Q1008 RMK/ CB IN AREA
12:00
V
30 °C 10 km+ 4.000 ft 250° 250° 10 - 15 kt METAR AYPY 270200Z 25010G15KT 9999 SCT025 BKN040 30/25 Q1009 RMK
11:00
V
30 °C 10 km+ - 350° 350° 10 kt METAR AYPY 270100Z 35010KT 9999 HZ SCT025 SCT040 30/24 Q1009 RMK/CB FM S THRU TO W
10:00
V
30 °C 10 km+ - 350° 350° 10 kt METAR AYPY 270000Z 35010KT 9999 FEW020 SCT030 30/24 Q1010
09:00
V
28 °C 10 km+ - 320° 320° 10 kt METAR AYPY 262300Z 32010KT 9999 FEW025 SCT060 28/25 Q1010
08:00
V
26 °C 10 km+ - 340° 340° 10 kt METAR AYPY 262200Z 34010KT 9999 FEW020 SCT050 26/23 Q1010
07:00
V
24 °C 10 km+ 3.500 ft 330° 330° 10 kt METAR AYPY 262100Z 33010KT 9999 SCT025 BKN035 24/23 Q1009 RMK
06:00
V
23 °C 10 km+ 5.000 ft 330° 330° 5 - 10 kt METAR AYPY 262000Z 33005G10KT 9999 SCT030 BKN050 23/23 Q1009
05:00
V
23 °C 10 km+ - 340° 340° 5 - 10 kt METAR AYPY 261900Z 34005G10KT 9999 SCT040 23/23 Q1008 RMK/ LIGHTNING OBS FM THE W
03:00
V
23 °C 10 km+ - 340° 340° 5 - 10 kt METAR AYPY 261700Z 34005G10KT 9999 SCT005 FG 23/23 Q1007 RMK
02:00
V
24 °C 10 km+ - 330° 330° 5 kt METAR AYPY 261600Z 33005KT 9999 SCT050 24/23 Q1007
01:00
V
24 °C 10 km+ - 350° 350° 5 kt METAR AYPY 261500Z 35005KT 9999 SCT050 24/24 Q1008
00:00
V
24 °C 10 km+ - 320° 320° 10 kt METAR AYPY 261400Z 32010KT 9999 SCT050 24/23 Q1009

26 de novembro de 2022

Hora Código Clima Temp. Visibilidade Tecto Vento METAR/SPECI
23:00
V
24 °C 10 km+ - 320° 320° 10 kt METAR AYPY 261300Z 32010KT 9999 SCT050 24/23 Q1009
22:00
V
25 °C 10 km+ - 320° 320° 5 kt METAR AYPY 261200Z 32005KT 9999 SCT040 25/24 Q1010
21:00
V
25 °C 10 km+ - 300° 300° 10 kt METAR AYPY 261100Z 30010KT 9999 FEW010 SCT030 25/24 Q1009
20:00
V
25 °C 10 km+ 4.000 ft 320° 320° 5 kt METAR AYPY 261000Z 32005KT 9999 SCT025 BKN040 25/24 Q1008
19:00
V
25 °C 10 km+ 4.000 ft 020° 020° 10 kt METAR AYPY 260900Z 02010KT 9999 SCT030 BKN040 25/24 Q1008
18:00
V
26 °C 10 km+ 5.000 ft 350° 350° 5 - 15 kt METAR AYPY 260800Z 35005G15KT 9999 SCT030 BKN050 26/24 Q1008=
17:00
V
25 °C 10 km+ 5.000 ft 100° 100° 5 - 15 kt METAR AYPY 260700Z 10005G15KT 9999 DZ SCT025 BKN050 25/24 Q1007
16:00
M
28 °C 10 km+ 2.500 ft 120° 120° 10 - 15 kt METAR AYPY 260600Z 12010G15KT 9999 SHRA BKN025 BKN040 28/26 Q1006
15:00
V
31 °C 10 km+ 5.000 ft 200° 200° 10 - 15 kt METAR AYPY 260500Z 20010G15KT 9999 SCT030 BKN050 31/25 Q1005 RMK
14:00
V
32 °C 10 km+ 5.000 ft 200° 200° 10 - 15 kt METAR AYPY 260400Z 20010G15KT 9999 SCT030 BKN050 32/25 Q1006 RMK/CB FM NW TO E/ SHRA TO E
13:00
V
32 °C 10 km+ - 250° 250° 5 - 15 kt METAR AYPY 260300Z 25005G15KT 9999 FEW025 SCT035 32/25 Q1007
12:00
V
31 °C 10 km+ - 260° 260° 5 - 10 kt METAR AYPY 260200Z 26005G10KT 9999 FEW025 SCT035 31/25 Q1008
11:00
V
33 °C 10 km+ - 270° 270° 5 - 10 kt METAR AYPY 260100Z 27005G10KT 9999 SCT030 33/23 Q1009
10:00
V
32 °C 10 km+ - 320° 320° 5 - 10 kt METAR AYPY 260000Z 32005G10KT 9999 FEW025 32/25 Q1009
08:00
V
28 °C 10 km+ - 350° 350° 5 kt METAR AYPY 252200Z 35005KT 9999 SCT035 28/24 Q1010
07:00
V
27 °C 10 km+ - 350° 350° 5 kt METAR AYPY 252100Z 35005KT 9999 FEW030 27/24 Q1009
06:00
V
25 °C 10 km+ - 300° 300° 4 kt METAR AYPY 252000Z 30004KT 9999 FEW025 SCT050 25/24 Q1009=
04:00
V
25 °C 10 km+ - 320° 320° 5 kt METAR AYPY 251800Z 32005KT 9999 SCT045 25/24 Q1008
02:00
V
25 °C 10 km+ - Var Var 3 kt METAR AYPY 251600Z VRB03KT 9999 SCT040 25/25 Q1008
00:00
V
25 °C 10 km+ - 320° 320° 5 kt METAR AYPY 251400Z 32005KT 9999 FEW040 25/24 Q1010

25 de novembro de 2022

Hora Código Clima Temp. Visibilidade Tecto Vento METAR/SPECI
23:00
V
26 °C 10 km+ - 350° 350° 5 kt METAR AYPY 251300Z 35005KT 9999 FEW030 26/25 Q1010
22:00
V
26 °C 10 km+ - 300° 300° 5 kt METAR AYPY 251200Z 30005KT 9999 FEW040 26/24 Q1010
21:00
V
26 °C 10 km+ - 350° 350° 5 kt METAR AYPY 251100Z 35005KT 9999 FEW050 26/24 Q1009
20:00
V
26 °C 10 km+ - 350° 350° 5 kt METAR AYPY 251000Z 35005KT 9999 FEW025 26/25 Q1009

Nós e terceiros acompanhamos seu comportamento na internet em nosso site com cookies. Se você continuar, nós assumimos que você concorda com nosso política de cookies.